createdAt,value
2022-11-18T00:04:56.708Z,97481.50
2022-11-18T00:09:59.581Z,97484.25
2022-11-18T00:15:03.992Z,97476.38
2022-11-18T00:20:07.752Z,97477.19
2022-11-18T00:25:11.045Z,97479.41
2022-11-18T00:30:15.327Z,97477.59
2022-11-18T00:35:18.196Z,97485.88
2022-11-18T00:40:21.053Z,97475.72
2022-11-18T00:45:25.306Z,97483.59
2022-11-18T00:50:28.204Z,97486.69
2022-11-18T00:55:31.820Z,97481.94
2022-11-18T01:00:36.133Z,97474.41
2022-11-18T01:05:39.390Z,97476.72
2022-11-18T01:10:42.545Z,97486.25
2022-11-18T01:15:48.579Z,97493.69
2022-11-18T01:20:51.638Z,97487.03
2022-11-18T01:25:54.651Z,97485.47
2022-11-18T01:31:04.757Z,97479.13
2022-11-18T01:36:16.758Z,97481.22
2022-11-18T01:41:21.336Z,97475.06
2022-11-18T01:46:27.291Z,97476.09
2022-11-18T01:51:34.665Z,97485.38
2022-11-18T01:56:42.723Z,97481.34
2022-11-18T02:01:47.484Z,97485.69
2022-11-18T02:06:50.976Z,97476.56
2022-11-18T02:11:54.930Z,97476.81
2022-11-18T02:17:11.078Z,97475.06
2022-11-18T02:22:29.729Z,97470.66
2022-11-18T02:27:58.466Z,97472.03
2022-11-18T02:33:08.391Z,97467.84
2022-11-18T02:38:16.758Z,97463.00
2022-11-18T02:43:25.712Z,97467.91
2022-11-18T02:48:33.793Z,97458.31
2022-11-18T02:53:39.572Z,97456.78
2022-11-18T02:58:42.427Z,97455.88
2022-11-18T03:03:46.739Z,97461.56
2022-11-18T03:08:56.648Z,97472.44
2022-11-18T03:14:10.331Z,97469.34
2022-11-18T03:19:20.803Z,97461.00
2022-11-18T03:24:30.633Z,97466.25
2022-11-18T03:29:37.129Z,97467.03
2022-11-18T03:34:46.855Z,97473.25
2022-11-18T03:39:53.748Z,97467.53
2022-11-18T03:45:01.692Z,97484.66
2022-11-18T03:50:13.821Z,97486.13
2022-11-18T03:55:20.706Z,97485.81
2022-11-18T04:00:24.697Z,97500.50
2022-11-18T04:05:33.425Z,97500.94
2022-11-18T04:10:43.079Z,97510.06
2022-11-18T04:15:46.063Z,97514.06
2022-11-18T04:20:50.498Z,97511.94
2022-11-18T04:25:53.420Z,97513.53
2022-11-18T04:30:56.322Z,97514.63
2022-11-18T04:36:00.548Z,97515.53
2022-11-18T04:41:03.413Z,97507.31
2022-11-18T04:46:06.497Z,97496.50
2022-11-18T04:51:10.797Z,97509.78
2022-11-18T04:56:13.807Z,97511.00
2022-11-18T05:01:16.801Z,97509.91
2022-11-18T05:06:21.165Z,97515.81
2022-11-18T05:11:41.526Z,97524.75
2022-11-18T05:16:44.695Z,97525.03
2022-11-18T05:21:48.997Z,97522.44
2022-11-18T05:26:52.738Z,97515.72
2022-11-18T05:31:55.653Z,97533.44
2022-11-18T05:36:59.910Z,97539.53
2022-11-18T05:42:20.618Z,97554.22
2022-11-18T05:47:24.954Z,97557.19
2022-11-18T05:52:29.492Z,97555.00
2022-11-18T05:57:32.372Z,97557.56
2022-11-18T06:02:35.431Z,97572.28
2022-11-18T06:07:42.847Z,97589.78
2022-11-18T06:12:48.451Z,97591.97
2022-11-18T06:17:56.324Z,97595.44
2022-11-18T06:23:01.858Z,97592.22
2022-11-18T06:28:05.138Z,97601.75
2022-11-18T06:33:08.801Z,97610.41
2022-11-18T06:38:13.272Z,97620.34
2022-11-18T06:43:33.518Z,97616.56
2022-11-18T06:48:36.424Z,97624.69
2022-11-18T06:53:40.922Z,97639.50
2022-11-18T06:58:43.800Z,97638.72
2022-11-18T07:03:47.824Z,97642.16
2022-11-18T07:08:52.875Z,97650.28
2022-11-18T07:13:56.012Z,97660.25
2022-11-18T07:18:59.024Z,97667.25
2022-11-18T07:24:07.940Z,97681.38
2022-11-18T07:29:11.674Z,97676.28
2022-11-18T07:34:14.699Z,97681.28
2022-11-18T07:39:19.181Z,97671.28
2022-11-18T07:44:22.382Z,97681.06
2022-11-18T07:49:25.319Z,97682.81
2022-11-18T07:54:29.595Z,97698.00
2022-11-18T07:59:32.468Z,97702.88
2022-11-18T08:04:37.883Z,97702.41
2022-11-18T08:09:42.227Z,97697.00
2022-11-18T08:14:45.106Z,97702.72
2022-11-18T08:19:47.955Z,97717.31
2022-11-18T08:24:52.213Z,97718.53
2022-11-18T08:29:55.102Z,97718.97
2022-11-18T08:34:57.974Z,97716.22
2022-11-18T08:40:02.278Z,97712.94
2022-11-18T08:45:08.342Z,97720.56
2022-11-18T08:50:12.626Z,97732.81
2022-11-18T08:55:17.202Z,97733.72
2022-11-18T09:00:20.987Z,97735.72
2022-11-18T09:05:23.902Z,97738.16
2022-11-18T09:10:28.635Z,97746.22
2022-11-18T09:15:31.918Z,97762.56
2022-11-18T09:20:34.795Z,97767.81
2022-11-18T09:25:39.181Z,97761.94
2022-11-18T09:30:42.195Z,97768.63
2022-11-18T09:35:45.582Z,97771.16
2022-11-18T09:41:05.231Z,97775.06
2022-11-18T09:46:26.419Z,97789.91
2022-11-18T09:51:33.771Z,97799.13
2022-11-18T09:56:38.106Z,97801.72
2022-11-18T10:01:41.118Z,97802.19
2022-11-18T10:06:45.573Z,97808.78
2022-11-18T10:12:03.563Z,97808.91
2022-11-18T10:17:17.444Z,97820.19
2022-11-18T10:22:24.789Z,97826.53
2022-11-18T10:27:39.341Z,97831.16
2022-11-18T10:32:55.577Z,97850.56
2022-11-18T10:38:08.617Z,97844.88
2022-11-18T10:43:14.476Z,97860.34
2022-11-18T10:48:20.165Z,97854.66
2022-11-18T10:53:34.019Z,97867.66
2022-11-18T10:58:42.705Z,97870.03
2022-11-18T11:03:57.909Z,97897.25
2022-11-18T11:09:07.404Z,97896.25
2022-11-18T11:14:20.838Z,97901.91
2022-11-18T11:19:26.555Z,97895.75
2022-11-18T11:24:29.475Z,97911.00
2022-11-18T11:29:52.283Z,97903.94
2022-11-18T11:35:03.906Z,97909.22
2022-11-18T11:40:34.744Z,97921.00
2022-11-18T11:45:48.474Z,97921.88
2022-11-18T11:51:03.072Z,97924.25
2022-11-18T11:56:23.551Z,97932.97
2022-11-18T12:01:36.545Z,97923.53
2022-11-18T12:06:42.631Z,97922.88
2022-11-18T12:11:52.226Z,97943.38
2022-11-18T12:17:07.998Z,97937.44
2022-11-18T12:22:10.912Z,97943.09
2022-11-18T12:27:16.156Z,97946.34
2022-11-18T12:32:43.318Z,97957.56
2022-11-18T12:37:59.693Z,97959.81
2022-11-18T12:43:20.686Z,97962.53
2022-11-18T12:48:48.599Z,97959.97
2022-11-18T12:53:52.931Z,97969.72
2022-11-18T12:58:57.021Z,97973.81
2022-11-18T13:04:09.673Z,97974.75
2022-11-18T13:09:17.979Z,97977.47
2022-11-18T13:14:42.532Z,97998.44
2022-11-18T13:19:57.775Z,98002.22
2022-11-18T13:25:00.627Z,98006.69
2022-11-18T13:30:06.000Z,98023.72
2022-11-18T13:35:14.787Z,98022.47
2022-11-18T13:40:21.200Z,98024.41
2022-11-18T13:45:27.831Z,98033.13
2022-11-18T13:50:36.432Z,98037.81
2022-11-18T13:55:41.475Z,98052.06
2022-11-18T14:00:44.685Z,98059.94
2022-11-18T14:05:55.940Z,98067.09
2022-11-18T14:10:59.938Z,98079.94
2022-11-18T14:16:05.007Z,98084.59
2022-11-18T14:21:13.739Z,98088.56
2022-11-18T14:26:28.328Z,98099.00
2022-11-18T14:31:32.871Z,98109.56
2022-11-18T14:36:37.132Z,98103.84
2022-11-18T14:41:48.775Z,98106.78
2022-11-18T14:46:55.297Z,98112.38
2022-11-18T14:52:02.535Z,98127.13
2022-11-18T14:57:06.613Z,98137.31
2022-11-18T15:02:15.579Z,98129.31
2022-11-18T15:07:23.800Z,98142.47
2022-11-18T15:12:27.415Z,98149.06
2022-11-18T15:17:30.796Z,98165.53
2022-11-18T15:22:35.526Z,98168.47
2022-11-18T15:27:38.795Z,98168.63
2022-11-18T15:32:41.669Z,98171.72
2022-11-18T15:37:45.919Z,98178.25
2022-11-18T15:42:51.992Z,98174.28
2022-11-18T15:47:55.437Z,98189.03
2022-11-18T15:52:59.840Z,98215.59
2022-11-18T15:58:02.738Z,98210.22
2022-11-18T16:03:05.659Z,98214.44
2022-11-18T16:08:09.955Z,98225.69
2022-11-18T16:13:12.884Z,98238.19
2022-11-18T16:18:17.931Z,98241.75
2022-11-18T16:23:22.215Z,98258.78
2022-11-18T16:28:25.067Z,98254.34
2022-11-18T16:33:27.964Z,98263.22
2022-11-18T16:38:32.191Z,98260.84
2022-11-18T16:43:35.098Z,98275.50
2022-11-18T16:48:38.083Z,98278.09
2022-11-18T16:53:42.331Z,98274.13
2022-11-18T16:58:45.242Z,98281.56
2022-11-18T17:03:48.503Z,98289.94
2022-11-18T17:08:52.819Z,98294.41
2022-11-18T17:13:58.276Z,98299.81
2022-11-18T17:19:03.784Z,98292.97
2022-11-18T17:24:13.952Z,98302.47
2022-11-18T17:29:17.424Z,98317.38
2022-11-18T17:34:21.208Z,98322.38
2022-11-18T17:39:25.753Z,98329.75
2022-11-18T17:44:30.079Z,98339.31
2022-11-18T17:49:33.334Z,98347.16
2022-11-18T17:54:37.730Z,98342.75
2022-11-18T17:59:40.613Z,98360.09
2022-11-18T18:04:43.463Z,98346.72
2022-11-18T18:09:47.863Z,98365.69
2022-11-18T18:14:50.866Z,98366.59
2022-11-18T18:19:53.737Z,98373.00
2022-11-18T18:24:58.168Z,98365.06
2022-11-18T18:30:01.136Z,98361.69
2022-11-18T18:35:04.287Z,98373.34
2022-11-18T18:40:09.916Z,98381.09
2022-11-18T18:45:30.311Z,98406.47
2022-11-18T18:50:33.579Z,98394.06
2022-11-18T18:55:42.004Z,98387.00
2022-11-18T19:00:47.778Z,98411.97
2022-11-18T19:11:30.208Z,98415.66
2022-11-18T19:16:33.313Z,98420.50
2022-11-18T19:21:36.623Z,98419.16
2022-11-18T19:26:41.159Z,98424.47
2022-11-18T19:31:44.107Z,98430.06
2022-11-18T19:36:46.982Z,98425.50
2022-11-18T19:41:51.271Z,98435.31
2022-11-18T19:46:54.232Z,98444.66
2022-11-18T19:51:57.173Z,98449.22
2022-11-18T19:57:03.834Z,98442.13
2022-11-18T20:02:07.489Z,98446.13
2022-11-18T20:07:10.372Z,98454.09
2022-11-18T20:12:14.697Z,98475.88
2022-11-18T20:17:17.562Z,98466.56
2022-11-18T20:22:20.441Z,98461.63
2022-11-18T20:27:24.719Z,98467.41
2022-11-18T20:32:27.660Z,98476.56
2022-11-18T20:37:30.607Z,98474.84
2022-11-18T20:42:52.988Z,98477.03
2022-11-18T20:47:56.247Z,98481.66
2022-11-18T20:52:59.216Z,98486.22
2022-11-18T20:58:03.633Z,98502.22
2022-11-18T21:03:07.106Z,98505.69
2022-11-18T21:08:10.987Z,98505.00
2022-11-18T21:13:32.800Z,98500.19
2022-11-18T21:18:35.708Z,98497.16
2022-11-18T21:23:38.567Z,98501.66
2022-11-18T21:28:42.888Z,98506.78
2022-11-18T21:33:45.800Z,98510.81
2022-11-18T21:38:49.068Z,98515.44
2022-11-18T21:44:08.706Z,98513.81
2022-11-18T21:49:11.670Z,98520.66
2022-11-18T21:54:15.994Z,98528.66
2022-11-18T21:59:22.337Z,98525.03
2022-11-18T22:04:42.905Z,98528.06
2022-11-18T22:09:45.832Z,98541.75
2022-11-18T22:14:51.226Z,98542.31
2022-11-18T22:19:54.176Z,98538.75
2022-11-18T22:24:57.313Z,98543.81
2022-11-18T22:30:01.574Z,98551.22
2022-11-18T22:35:04.750Z,98547.41
2022-11-18T22:40:09.212Z,98542.34
2022-11-18T22:45:13.559Z,98550.00
2022-11-18T22:50:17.078Z,98552.38
2022-11-18T22:55:19.988Z,98560.09
2022-11-18T23:00:24.412Z,98561.06
2022-11-18T23:05:27.298Z,98586.41
2022-11-18T23:10:31.555Z,98587.59
2022-11-18T23:15:35.902Z,98601.63
2022-11-18T23:20:38.933Z,98599.44
2022-11-18T23:25:41.780Z,98604.63
2022-11-18T23:30:46.126Z,98616.03
2022-11-18T23:35:53.185Z,98608.84
2022-11-18T23:40:56.927Z,98621.81
2022-11-18T23:46:01.485Z,98618.00
2022-11-18T23:51:06.331Z,98611.34
2022-11-18T23:56:11.228Z,98620.38
